Airport Name : Monchengladbach

Other Name : Monchengladbach

ICAO : EDLN

IATA : MGL

FAA :

Latitude : 51.230356

Longitude : 6.504494

Country : Germany

Local Date and Time : 22 Oct 2020 19:43

 

TAF (Terminal Aerodrome Forecast)

TAF EDLN 221700Z 2218/2303 VRB03KT 9999 FEW045 TEMPO 2222/2303 4000 BR BKN010

 

METAR (METeorological Aerodrome Report)

EDLN 221720Z 22005KT 190V250 CAVOK 15/14 Q1011

EDLN 221650Z 23003KT 190V260 9999 FEW044 15/14 Q1011

EDLN 221620Z 24005KT 220V290 9999 -RA FEW030 16/14 Q1011 RERA

EDLN 221550Z 24005KT 190V270 8000 RA SCT033 17/14 Q1011

EDLN 221520Z 23008KT 180V260 9999 VCSH SCT034TCU 19/13 Q1011

EDLN 221450Z 23011KT 200V260 9999 FEW037 SCT051TCU 19/13 Q1010

EDLN 221420Z 22009KT 180V250 9999 VCSH FEW038TCU SCT043 19/13 Q1010

EDLN 221350Z 23009KT 200V260 9999 VCSH BKN036TCU 19/13 Q1011

To Charter a Jet Click here.